This is the latest recevied weather packets stored in our database for station/object N6GPM. If no packets are shown the sender has not sent any weather packets the latest 1 day(s).
| Time | Temp. | Humidity | Pressure | Rain* | Wind** | Luminosity | Snow |
|---|---|---|---|---|---|---|---|
| 1778029796 | 16.11° C | 55% | 1017.2 hPa | 0 mm | 4.02 m/s, 277° | 99 W/m² | - |
| 1778029496 | 16.11° C | 55% | 1017.3 hPa | 0 mm | 1.79 m/s, 292° | 182 W/m² | - |
| 1778029191 | 16.67° C | 55% | 1017.2 hPa | 0 mm | 4.02 m/s, 267° | 215 W/m² | - |
| 1778028889 | 16.11° C | 54% | 1017 hPa | 0 mm | 2.24 m/s, 298° | 200 W/m² | - |
| 1778028584 | 16.11° C | 55% | 1017.2 hPa | 0 mm | 2.24 m/s, 297° | 204 W/m² | - |
| 1778028283 | 16.11° C | 54% | 1017.3 hPa | 0 mm | 1.34 m/s, 279° | 216 W/m² | - |
| 1778027978 | 16.67° C | 53% | 1016.9 hPa | 0 mm | 3.58 m/s, 290° | 248 W/m² | - |
| 1778027675 | 16.67° C | 54% | 1016.8 hPa | 0 mm | 4.02 m/s, 316° | 293 W/m² | - |
| 1778027371 | 16.67° C | 53% | 1017.2 hPa | 0 mm | 4.47 m/s, 328° | 326 W/m² | - |
| 1778027067 | 16.67° C | 54% | 1016.9 hPa | 0 mm | 3.13 m/s, 313° | 292 W/m² | - |
| 1778026763 | 16.67° C | 54% | 1017.2 hPa | 0 mm | 3.58 m/s, 285° | 311 W/m² | - |
| 1778026461 | 16.67° C | 53% | 1016.8 hPa | 0 mm | 3.13 m/s, 271° | 354 W/m² | - |
| 1778026158 | 16.67° C | 52% | 1016.9 hPa | 0 mm | 3.13 m/s, 286° | 388 W/m² | - |
| 1778025855 | 16.67° C | 54% | 1017 hPa | 0 mm | 4.02 m/s, 312° | 390 W/m² | - |
| 1778025552 | 17.22° C | 53% | 1016.8 hPa | 0 mm | 0 m/s | 416 W/m² | - |
| 1778025250 | 16.67° C | 53% | 1016.7 hPa | 0 mm | 1.34 m/s, 317° | 224 W/m² | - |
| 1778024946 | 16.67° C | 54% | 1016.7 hPa | 0 mm | 3.13 m/s, 256° | 119 W/m² | - |
| 1778024644 | 16.67° C | 53% | 1016.8 hPa | 0 mm | 3.13 m/s, 298° | 436 W/m² | - |
| 1778024341 | 17.22° C | 52% | 1016.8 hPa | 0 mm | 4.92 m/s, 292° | 456 W/m² | - |
| 1778024039 | 17.22° C | 53% | 1016.7 hPa | 0 mm | 3.58 m/s, 280° | 491 W/m² | - |
| 1778023736 | 17.22° C | 52% | 1016.9 hPa | 0 mm | 2.24 m/s, 292° | 468 W/m² | - |
| 1778023434 | 17.22° C | 53% | 1016.9 hPa | 0 mm | 3.13 m/s, 260° | 471 W/m² | - |
| 1778023130 | 17.22° C | 53% | 1016.9 hPa | 0 mm | 6.26 m/s, 315° | 521 W/m² | - |
| 1778022827 | 16.67° C | 55% | 1016.7 hPa | 0 mm | 0.45 m/s, 298° | 194 W/m² | - |
| 1778022525 | 17.78° C | 54% | 1016.8 hPa | 0 mm | 4.47 m/s, 270° | 173 W/m² | - |
* Rain latest hour (hover to see other rain measurements)
** Current wind speed in m/s (hover to see current wind gust speed)